Time;durP1;ratioP1;P1;durP2;ratioP2;P2;SDS_P1;SDS_P2;PMS_P1;PMS_P2;Temp;Humidity;BMP_temperature;BMP_pressure;BME280_temperature;BME280_humidity;BME280_pressure;Samples;Min_cycle;Max_cycle;Signal;HPM_P1;HPM_P2
2023/11/29 00:01:07;;;;;;;21.63;15.20;;;1.60;99.90;;;;;;7375411;19;20038;-61
2023/11/29 00:03:33;;;;;;;18.65;13.48;;;1.50;99.90;;;;;;7375520;19;20703;-61
2023/11/29 00:05:59;;;;;;;17.45;13.93;;;1.30;99.90;;;;;;7377534;19;20106;-61
2023/11/29 00:08:25;;;;;;;22.35;14.80;;;1.20;99.90;;;;;;7375791;19;20082;-61
2023/11/29 00:10:52;;;;;;;23.02;14.18;;;1.20;99.90;;;;;;7378680;19;20066;-62
2023/11/29 00:13:20;;;;;;;20.20;14.10;;;1.10;99.90;;;;;;7375141;19;20042;-62
2023/11/29 00:15:47;;;;;;;19.63;14.60;;;1.10;99.90;;;;;;7378034;19;20024;-61
2023/11/29 00:18:14;;;;;;;21.27;13.60;;;1.10;99.90;;;;;;7378247;19;20095;-62
2023/11/29 00:20:41;;;;;;;19.25;13.48;;;1.20;99.90;;;;;;7375823;19;20750;-61
2023/11/29 00:23:07;;;;;;;20.25;13.15;;;1.20;99.90;;;;;;7377654;19;20094;-62
2023/11/29 00:25:33;;;;;;;22.13;15.20;;;1.20;99.90;;;;;;7373886;19;20031;-62
2023/11/29 00:28:00;;;;;;;26.95;15.73;;;1.20;99.90;;;;;;7378195;19;20093;-61
2023/11/29 00:30:30;;;;;;;24.83;17.05;;;1.20;99.90;;;;;;7373969;19;20461;-62
2023/11/29 00:32:57;;;;;;;34.92;17.33;;;1.10;99.90;;;;;;7376940;19;20017;-61
2023/11/29 00:35:25;;;;;;;29.90;17.08;;;1.10;99.90;;;;;;7377411;19;20383;-61
2023/11/29 00:37:53;;;;;;;33.55;17.48;;;1.00;99.90;;;;;;7377169;19;20015;-61
2023/11/29 00:40:19;;;;;;;32.42;16.77;;;0.90;99.90;;;;;;7374831;19;20018;-61
2023/11/29 00:42:46;;;;;;;27.70;16.58;;;1.00;99.90;;;;;;7375052;19;20030;-61
2023/11/29 00:45:15;;;;;;;28.70;15.85;;;0.90;99.90;;;;;;7373114;19;20492;-61
2023/11/29 00:47:41;;;;;;;26.50;14.73;;;0.90;99.90;;;;;;7375562;19;20014;-61
2023/11/29 00:50:08;;;;;;;24.23;13.57;;;0.90;99.90;;;;;;7375718;19;20026;-61
2023/11/29 00:52:35;;;;;;;30.90;14.75;;;0.90;99.90;;;;;;7373511;19;20015;-61
2023/11/29 00:55:01;;;;;;;22.67;11.88;;;0.80;99.90;;;;;;7375234;19;20136;-61
2023/11/29 00:57:27;;;;;;;21.77;12.25;;;0.90;99.90;;;;;;7375456;19;20014;-61
2023/11/29 00:59:54;;;;;;;20.55;12.05;;;0.90;99.90;;;;;;7375464;19;20026;-61
2023/11/29 01:02:20;;;;;;;14.65;7.90;;;0.90;99.90;;;;;;7376583;19;20047;-61
2023/11/29 01:04:47;;;;;;;13.23;5.78;;;0.90;99.90;;;;;;7374395;19;20659;-60
2023/11/29 01:07:13;;;;;;;7.95;4.53;;;0.90;99.90;;;;;;7374451;19;20051;-61
2023/11/29 01:09:39;;;;;;;8.52;4.30;;;0.90;99.90;;;;;;7375977;19;20141;-61
2023/11/29 01:12:05;;;;;;;5.82;4.07;;;1.00;99.90;;;;;;7373172;19;20592;-61
2023/11/29 01:14:35;;;;;;;8.93;4.05;;;1.00;99.90;;;;;;7373398;19;20023;-61
2023/11/29 01:17:03;;;;;;;7.95;4.18;;;0.90;99.90;;;;;;7372590;19;20014;-61
2023/11/29 01:19:29;;;;;;;8.95;4.03;;;0.90;99.90;;;;;;7372964;19;20043;-62
2023/11/29 01:21:55;;;;;;;5.25;3.20;;;0.90;99.90;;;;;;7371506;19;20014;-61
2023/11/29 01:24:21;;;;;;;5.10;2.85;;;1.00;99.90;;;;;;7370835;19;20043;-62
2023/11/29 01:26:47;;;;;;;6.88;3.10;;;1.00;99.90;;;;;;7374290;19;20026;-62
2023/11/29 01:29:21;;;;;;;6.20;3.38;;;1.00;99.90;;;;;;7365078;19;20015;-62
2023/11/29 01:31:47;;;;;;;6.65;3.92;;;1.00;99.90;;;;;;7372935;19;20023;-61
2023/11/29 01:34:13;;;;;;;7.95;4.53;;;1.00;99.90;;;;;;7370278;19;20022;-61
2023/11/29 01:36:43;;;;;;;8.10;5.05;;;1.00;99.90;;;;;;7372742;19;20082;-61
2023/11/29 01:39:14;;;;;;;11.65;7.13;;;1.00;99.90;;;;;;7373092;19;20029;-62
2023/11/29 01:41:43;;;;;;;15.05;8.88;;;1.00;99.90;;;;;;7371772;19;20014;-62
2023/11/29 01:44:10;;;;;;;15.68;9.40;;;1.00;99.90;;;;;;7371394;19;20047;-62
2023/11/29 01:46:36;;;;;;;17.42;10.90;;;1.00;99.90;;;;;;7373278;19;20022;-62
2023/11/29 01:49:03;;;;;;;17.40;10.38;;;1.00;99.90;;;;;;7372921;19;20077;-61
2023/11/29 01:51:30;;;;;;;18.08;11.07;;;1.10;99.90;;;;;;7368072;19;20466;-63
2023/11/29 01:54:01;;;;;;;19.88;12.05;;;1.00;99.90;;;;;;7372726;19;20022;-61
2023/11/29 01:56:27;;;;;;;21.48;13.05;;;1.00;99.90;;;;;;7368127;19;20018;-61
2023/11/29 01:58:57;;;;;;;22.90;14.15;;;1.10;99.90;;;;;;7372388;19;20055;-61
2023/11/29 02:01:23;;;;;;;23.58;15.43;;;1.10;99.90;;;;;;7365917;19;20019;-61
2023/11/29 02:03:57;;;;;;;28.88;16.00;;;1.10;99.90;;;;;;7372342;19;20051;-62
2023/11/29 02:06:24;;;;;;;26.00;16.40;;;1.10;99.90;;;;;;7367925;19;20399;-61
2023/11/29 02:08:50;;;;;;;27.13;17.00;;;1.00;99.90;;;;;;7370600;19;20010;-61
2023/11/29 02:11:19;;;;;;;27.45;17.45;;;1.10;99.90;;;;;;7370153;19;20023;-61
2023/11/29 02:13:45;;;;;;;27.92;16.40;;;1.20;99.90;;;;;;7368749;19;20022;-61
2023/11/29 02:16:14;;;;;;;27.65;16.80;;;1.10;99.90;;;;;;7369813;19;20018;-61
2023/11/29 02:18:44;;;;;;;27.23;18.00;;;1.20;99.90;;;;;;7369898;19;20061;-60
2023/11/29 02:21:11;;;;;;;26.45;15.13;;;1.20;99.90;;;;;;7370633;19;20029;-61
2023/11/29 02:24:00;;;;;;;25.85;16.38;;;1.20;99.90;;;;;;7369490;19;20026;-61
2023/11/29 02:26:30;;;;;;;19.35;12.65;;;1.20;99.90;;;;;;7369222;19;20039;-60
2023/11/29 02:28:56;;;;;;;18.00;10.20;;;1.30;99.90;;;;;;7373852;19;20015;-60
2023/11/29 02:31:23;;;;;;;16.48;9.77;;;1.30;99.90;;;;;;7374023;19;20022;-61
2023/11/29 02:33:50;;;;;;;13.27;8.65;;;1.30;99.90;;;;;;7378891;19;20605;-61
2023/11/29 02:36:16;;;;;;;12.75;7.15;;;1.30;99.90;;;;;;7377496;19;20056;-61
2023/11/29 02:38:42;;;;;;;10.30;6.07;;;1.30;99.90;;;;;;7378447;19;20015;-60
2023/11/29 02:41:08;;;;;;;7.70;4.85;;;1.30;99.90;;;;;;7379722;19;20039;-61
2023/11/29 02:43:35;;;;;;;7.30;4.38;;;1.30;99.90;;;;;;7373583;19;20384;-61
2023/11/29 02:46:04;;;;;;;6.25;4.47;;;1.30;99.90;;;;;;7369583;19;20023;-61
2023/11/29 02:48:31;;;;;;;6.13;3.88;;;1.30;99.90;;;;;;7373484;19;20022;-62
2023/11/29 02:50:57;;;;;;;7.03;4.90;;;1.30;99.90;;;;;;7376832;19;20023;-62
2023/11/29 02:53:23;;;;;;;8.23;4.97;;;1.20;99.90;;;;;;7371822;19;20019;-62
2023/11/29 02:55:50;;;;;;;7.30;4.97;;;1.20;99.90;;;;;;7378705;19;20019;-62
2023/11/29 02:58:16;;;;;;;9.85;5.55;;;1.20;99.90;;;;;;7376590;19;20031;-62
2023/11/29 03:00:43;;;;;;;11.43;5.85;;;1.20;99.90;;;;;;7378414;19;20027;-62
2023/11/29 03:03:09;;;;;;;8.90;6.10;;;1.20;99.90;;;;;;7373980;19;20812;-62
2023/11/29 03:05:36;;;;;;;9.55;5.88;;;1.20;99.90;;;;;;7377899;19;20030;-64
2023/11/29 03:08:04;;;;;;;8.23;5.95;;;1.20;99.90;;;;;;7373970;19;20022;-62
2023/11/29 03:10:30;;;;;;;10.25;5.72;;;1.20;99.90;;;;;;7376968;19;20018;-62
2023/11/29 03:12:56;;;;;;;9.07;6.50;;;1.20;99.90;;;;;;7376821;19;20035;-62
2023/11/29 03:15:23;;;;;;;10.15;6.57;;;1.20;99.90;;;;;;7375681;19;20018;-62
2023/11/29 03:17:49;;;;;;;12.93;7.13;;;1.20;99.90;;;;;;7375358;19;20714;-62
2023/11/29 03:20:16;;;;;;;11.57;7.22;;;1.20;99.90;;;;;;7368688;19;20014;-64
2023/11/29 03:22:42;;;;;;;15.48;8.00;;;1.20;99.90;;;;;;7376065;19;20035;-62
2023/11/29 03:25:09;;;;;;;11.93;7.28;;;1.20;99.90;;;;;;7372765;19;20023;-61
2023/11/29 03:27:35;;;;;;;12.15;8.60;;;1.20;99.90;;;;;;7370917;19;20018;-62
2023/11/29 03:30:02;;;;;;;13.23;8.73;;;1.20;99.90;;;;;;7374692;19;20106;-62
2023/11/29 03:32:28;;;;;;;12.55;8.45;;;1.20;99.90;;;;;;7373851;19;20027;-63
2023/11/29 03:34:55;;;;;;;13.05;8.20;;;1.20;99.90;;;;;;7373190;19;20014;-62
2023/11/29 03:37:21;;;;;;;14.18;8.48;;;1.20;99.90;;;;;;7374226;19;20014;-62
2023/11/29 03:39:48;;;;;;;13.32;8.55;;;1.30;99.90;;;;;;7380189;19;20106;-62
2023/11/29 03:42:15;;;;;;;14.05;9.27;;;1.30;99.90;;;;;;7369581;19;20038;-62
2023/11/29 03:44:41;;;;;;;14.55;8.38;;;1.30;99.90;;;;;;7376061;19;20770;-61
2023/11/29 03:47:08;;;;;;;13.30;9.95;;;1.30;99.90;;;;;;7373786;19;20381;-63
2023/11/29 03:49:34;;;;;;;14.85;9.25;;;1.30;99.90;;;;;;7373886;19;20117;-61
2023/11/29 03:52:00;;;;;;;14.90;11.02;;;1.30;99.90;;;;;;7375044;19;20015;-62
2023/11/29 03:54:27;;;;;;;14.80;10.25;;;1.30;99.90;;;;;;7368839;19;20026;-62
2023/11/29 03:56:58;;;;;;;;;;;1.30;99.90;;;;;;7377143;19;20047;-62
2023/11/29 03:59:25;;;;;;;17.33;12.30;;;1.40;99.90;;;;;;7370784;19;19918;-62
2023/11/29 04:01:51;;;;;;;17.70;13.77;;;1.30;99.90;;;;;;7378692;19;20063;-62
2023/11/29 04:04:17;;;;;;;17.25;13.70;;;1.40;99.90;;;;;;7370080;19;20018;-62
2023/11/29 04:06:44;;;;;;;19.80;13.60;;;1.40;99.90;;;;;;7373772;19;20022;-62
2023/11/29 04:09:10;;;;;;;17.60;12.77;;;1.40;99.90;;;;;;7373527;19;20046;-62
2023/11/29 04:11:36;;;;;;;17.00;12.27;;;1.40;99.90;;;;;;7374237;19;20035;-63
2023/11/29 04:14:12;;;;;;;17.20;12.93;;;1.50;99.90;;;;;;7373678;19;20019;-62
2023/11/29 04:16:38;;;;;;;17.70;11.55;;;1.40;99.90;;;;;;7367458;19;20014;-62
2023/11/29 04:19:04;;;;;;;19.15;12.23;;;1.40;99.90;;;;;;7373898;19;20042;-62
2023/11/29 04:21:34;;;;;;;16.40;11.52;;;1.40;99.90;;;;;;7366576;19;20018;-62
2023/11/29 04:24:01;;;;;;;18.08;11.50;;;1.40;99.90;;;;;;7369891;19;20761;-62
2023/11/29 04:26:37;;;;;;;18.13;12.27;;;1.40;99.90;;;;;;7366210;19;20740;-62
2023/11/29 04:29:05;;;;;;;20.73;12.50;;;1.40;99.90;;;;;;7372039;19;20010;-62
2023/11/29 04:31:32;;;;;;;19.10;12.43;;;1.40;99.90;;;;;;7368776;19;20033;-62
2023/11/29 04:33:58;;;;;;;16.70;11.88;;;1.40;99.90;;;;;;7373527;19;20454;-61
2023/11/29 04:36:25;;;;;;;18.13;12.70;;;1.40;99.90;;;;;;7369553;19;20022;-61
2023/11/29 04:38:54;;;;;;;22.38;13.85;;;1.40;99.90;;;;;;7371547;19;20070;-62
2023/11/29 04:41:22;;;;;;;20.27;14.60;;;1.30;99.90;;;;;;7370692;19;20026;-62
2023/11/29 04:43:49;;;;;;;18.95;14.30;;;1.40;99.90;;;;;;7370520;19;20683;-62
2023/11/29 04:46:16;;;;;;;21.98;14.88;;;1.20;99.90;;;;;;7371802;19;20026;-62
2023/11/29 04:48:50;;;;;;;19.48;14.95;;;1.20;99.90;;;;;;7368343;19;20506;-62
2023/11/29 04:51:16;;;;;;;21.35;14.55;;;1.20;99.90;;;;;;7374164;19;20031;-61
2023/11/29 04:53:43;;;;;;;20.35;14.73;;;1.20;99.90;;;;;;7369112;19;20483;-62
2023/11/29 04:56:09;;;;;;;23.38;14.35;;;1.20;99.90;;;;;;7373292;19;20029;-62
2023/11/29 04:58:39;;;;;;;22.20;14.38;;;1.20;99.90;;;;;;7369128;19;20508;-62
2023/11/29 05:01:10;;;;;;;21.75;15.20;;;1.20;99.90;;;;;;7373892;19;20094;-62
2023/11/29 05:03:39;;;;;;;21.30;14.00;;;1.30;99.90;;;;;;7366209;19;20098;-63
2023/11/29 05:06:07;;;;;;;19.98;13.32;;;1.30;99.90;;;;;;7369766;19;20019;-62
2023/11/29 05:08:33;;;;;;;18.30;11.98;;;1.30;99.90;;;;;;7368283;19;20380;-62
2023/11/29 05:11:00;;;;;;;16.05;11.48;;;1.40;99.90;;;;;;7371303;19;20047;-61
2023/11/29 05:13:30;;;;;;;20.52;12.32;;;1.40;99.90;;;;;;7369134;19;20021;-62
2023/11/29 05:16:03;;;;;;;21.67;12.70;;;1.40;99.90;;;;;;7369246;19;20468;-62
2023/11/29 05:18:29;;;;;;;18.13;10.63;;;1.40;99.90;;;;;;7367215;19;20085;-62
2023/11/29 05:20:57;;;;;;;18.90;10.18;;;1.40;99.90;;;;;;7369334;19;20064;-62
2023/11/29 05:23:26;;;;;;;17.27;10.45;;;1.40;99.90;;;;;;7367739;19;20021;-62
2023/11/29 05:25:52;;;;;;;16.88;10.70;;;1.50;99.90;;;;;;7366655;19;20018;-62
2023/11/29 05:28:26;;;;;;;16.02;9.80;;;1.50;99.90;;;;;;7368229;19;20018;-62
2023/11/29 05:30:53;;;;;;;12.50;7.60;;;1.50;99.90;;;;;;7368032;19;20363;-62
2023/11/29 05:33:23;;;;;;;10.73;6.93;;;1.50;99.90;;;;;;7366843;19;20039;-61
2023/11/29 05:35:49;;;;;;;14.02;6.90;;;1.60;99.90;;;;;;7371161;19;20033;-62
2023/11/29 05:38:16;;;;;;;16.60;6.13;;;1.80;99.90;;;;;;7371536;19;20473;-62
2023/11/29 05:40:42;;;;;;;10.88;4.97;;;1.70;99.90;;;;;;7371551;19;20599;-62
2023/11/29 05:43:08;;;;;;;14.15;5.15;;;1.70;99.90;;;;;;7367930;19;20018;-61
2023/11/29 05:45:35;;;;;;;14.70;5.55;;;1.70;99.90;;;;;;7372765;19;20018;-61
2023/11/29 05:48:03;;;;;;;8.77;4.32;;;1.70;99.90;;;;;;7374986;19;20022;-61
2023/11/29 05:50:29;;;;;;;9.88;3.53;;;1.70;99.90;;;;;;7375646;19;20054;-61
2023/11/29 05:53:03;;;;;;;8.70;3.90;;;1.70;99.90;;;;;;7373379;19;20023;-61
2023/11/29 05:55:31;;;;;;;10.20;3.60;;;1.80;99.90;;;;;;7372686;19;20015;-61
2023/11/29 05:57:57;;;;;;;9.35;3.70;;;1.80;99.90;;;;;;7371634;19;20102;-61
2023/11/29 06:00:23;;;;;;;7.45;2.85;;;1.80;99.90;;;;;;7372758;19;20229;-62
2023/11/29 06:02:49;;;;;;;6.57;2.35;;;1.80;99.90;;;;;;7367403;19;20629;-62
2023/11/29 06:05:16;;;;;;;6.22;2.55;;;1.80;99.90;;;;;;7370067;19;20018;-61
2023/11/29 06:07:42;;;;;;;9.40;2.47;;;1.80;99.90;;;;;;7369561;19;20037;-60
2023/11/29 06:10:09;;;;;;;7.68;2.55;;;1.80;99.90;;;;;;7369986;19;20018;-63
2023/11/29 06:12:36;;;;;;;7.55;2.40;;;1.80;99.90;;;;;;7371756;19;20046;-61
2023/11/29 06:15:05;;;;;;;7.90;2.28;;;1.80;99.90;;;;;;7370887;19;20037;-61
2023/11/29 06:17:35;;;;;;;6.68;2.30;;;1.80;99.90;;;;;;7372784;19;20025;-61
2023/11/29 06:20:09;;;;;;;7.20;2.40;;;1.90;99.90;;;;;;7372588;19;20731;-61
2023/11/29 06:22:35;;;;;;;8.38;2.92;;;1.90;99.90;;;;;;7370765;19;20018;-61
2023/11/29 06:25:04;;;;;;;7.82;2.90;;;2.00;99.90;;;;;;7373345;19;20829;-62
2023/11/29 06:27:31;;;;;;;6.97;3.97;;;2.00;99.90;;;;;;7372473;19;20097;-62
2023/11/29 06:29:57;;;;;;;9.25;4.47;;;2.00;99.90;;;;;;7370972;19;20142;-61
2023/11/29 06:32:24;;;;;;;10.23;4.75;;;2.00;99.90;;;;;;7372235;19;20064;-61
2023/11/29 06:34:55;;;;;;;8.45;4.75;;;2.10;99.90;;;;;;7371663;19;20026;-61
2023/11/29 06:37:23;;;;;;;10.88;6.18;;;2.00;99.90;;;;;;7368174;19;20023;-61
2023/11/29 06:39:49;;;;;;;11.70;7.45;;;2.00;99.90;;;;;;7372308;19;20528;-64
2023/11/29 06:42:16;;;;;;;15.57;8.18;;;2.00;99.90;;;;;;7371004;19;20014;-63
2023/11/29 06:44:42;;;;;;;10.52;7.63;;;2.00;99.90;;;;;;7367455;19;20022;-63
2023/11/29 06:47:08;;;;;;;12.77;7.75;;;2.00;99.90;;;;;;7372993;19;20372;-63
2023/11/29 06:49:34;;;;;;;14.15;8.60;;;1.90;99.90;;;;;;7369359;19;20764;-61
2023/11/29 06:52:02;;;;;;;16.85;8.52;;;2.00;99.90;;;;;;7372298;19;20599;-60
2023/11/29 06:54:28;;;;;;;12.10;8.43;;;1.90;99.90;;;;;;7371251;19;20007;-60
2023/11/29 06:56:55;;;;;;;12.68;7.90;;;1.80;99.90;;;;;;7373014;19;20569;-61
2023/11/29 06:59:21;;;;;;;13.00;8.57;;;1.80;99.90;;;;;;7371805;19;20741;-63
2023/11/29 07:01:47;;;;;;;15.27;8.00;;;1.80;99.90;;;;;;7369985;19;20441;-60
2023/11/29 07:04:13;;;;;;;21.42;11.20;;;1.70;99.90;;;;;;7373916;19;20677;-60
2023/11/29 07:06:39;;;;;;;17.38;8.70;;;1.70;99.90;;;;;;7368357;19;20030;-58
2023/11/29 07:09:06;;;;;;;12.50;7.95;;;1.70;99.90;;;;;;7368664;19;20015;-60
2023/11/29 07:11:36;;;;;;;14.52;8.65;;;1.70;99.90;;;;;;7372043;19;20018;-60
2023/11/29 07:14:03;;;;;;;14.85;9.38;;;1.70;99.90;;;;;;7374775;19;20035;-61
2023/11/29 07:16:29;;;;;;;17.42;9.85;;;1.80;99.90;;;;;;7378388;19;20134;-61
2023/11/29 07:18:55;;;;;;;20.38;12.05;;;1.80;99.90;;;;;;7378594;19;20018;-60
2023/11/29 07:21:22;;;;;;;16.25;10.60;;;1.80;99.90;;;;;;7378288;19;20814;-60
2023/11/29 07:23:48;;;;;;;24.35;12.43;;;1.80;99.90;;;;;;7379809;19;20487;-60
2023/11/29 07:26:15;;;;;;;16.70;11.98;;;1.80;99.90;;;;;;7376282;19;20027;-61
2023/11/29 07:28:42;;;;;;;19.58;11.43;;;1.80;99.90;;;;;;7376643;19;20050;-61
2023/11/29 07:31:09;;;;;;;18.13;10.13;;;1.90;99.90;;;;;;7379604;19;20022;-61
2023/11/29 07:33:36;;;;;;;17.30;10.13;;;1.90;99.90;;;;;;7379486;19;20102;-62
2023/11/29 07:36:08;;;;;;;19.30;10.07;;;1.90;99.90;;;;;;7381356;19;20054;-62
2023/11/29 07:38:34;;;;;;;16.92;10.43;;;1.90;99.90;;;;;;7378009;19;20102;-61
2023/11/29 07:41:01;;;;;;;22.42;11.35;;;1.90;99.90;;;;;;7378583;19;20061;-61
2023/11/29 07:43:27;;;;;;;14.02;10.05;;;2.00;99.90;;;;;;7379290;19;20018;-62
2023/11/29 07:45:53;;;;;;;17.75;10.57;;;1.90;99.90;;;;;;7377783;19;20319;-62
2023/11/29 07:48:21;;;;;;;16.92;10.35;;;1.90;99.90;;;;;;7377654;19;20029;-61
2023/11/29 07:50:50;;;;;;;24.65;16.08;;;1.90;99.90;;;;;;7377853;19;20018;-61
2023/11/29 07:53:16;;;;;;;24.10;14.88;;;1.80;99.90;;;;;;7378000;19;20086;-61
2023/11/29 07:55:42;;;;;;;22.05;13.90;;;1.80;99.90;;;;;;7376679;19;20089;-61
2023/11/29 07:58:13;;;;;;;9.80;7.65;;;1.80;99.90;;;;;;7377429;19;20023;-61
2023/11/29 08:00:39;;;;;;;17.73;10.18;;;1.80;99.90;;;;;;7374233;19;20469;-61
2023/11/29 08:03:09;;;;;;;12.95;8.32;;;1.80;99.90;;;;;;7376658;19;20030;-61
2023/11/29 08:05:35;;;;;;;17.42;10.73;;;1.80;99.90;;;;;;7375195;19;20018;-61
2023/11/29 08:08:02;;;;;;;14.73;8.90;;;1.70;99.90;;;;;;7373891;19;20048;-62
2023/11/29 08:10:29;;;;;;;10.95;6.55;;;1.70;99.90;;;;;;7377327;19;20031;-61
2023/11/29 08:12:58;;;;;;;10.48;6.40;;;1.70;99.90;;;;;;7377413;19;20074;-59
2023/11/29 08:15:24;;;;;;;12.43;8.73;;;1.80;99.90;;;;;;7375795;19;20601;-61
2023/11/29 08:17:50;;;;;;;13.52;6.60;;;1.70;99.90;;;;;;7375847;19;20082;-61
2023/11/29 08:20:17;;;;;;;11.45;6.78;;;1.70;99.90;;;;;;7376941;19;20510;-61
2023/11/29 08:22:44;;;;;;;8.00;5.85;;;1.70;99.90;;;;;;7378839;19;20498;-61
2023/11/29 08:25:13;;;;;;;8.93;7.28;;;1.70;99.90;;;;;;7375127;19;20022;-61
2023/11/29 08:27:40;;;;;;;9.98;6.15;;;1.70;99.90;;;;;;7377045;19;20014;-61
2023/11/29 08:30:07;;;;;;;10.20;5.85;;;1.70;99.90;;;;;;7375788;19;20426;-61
2023/11/29 08:32:33;;;;;;;22.63;15.25;;;1.70;99.90;;;;;;7378594;19;20022;-61
2023/11/29 08:34:59;;;;;;;12.82;8.10;;;1.70;99.90;;;;;;7376872;19;20029;-61
2023/11/29 08:37:26;;;;;;;10.20;6.65;;;1.60;99.90;;;;;;7373191;19;20019;-61
2023/11/29 08:39:53;;;;;;;17.30;10.05;;;1.60;99.90;;;;;;7378020;19;20090;-61
2023/11/29 08:42:19;;;;;;;8.50;5.88;;;1.60;99.90;;;;;;7378587;19;20010;-61
2023/11/29 08:44:46;;;;;;;10.65;5.55;;;1.60;99.90;;;;;;7376609;19;20054;-61
2023/11/29 08:47:12;;;;;;;11.60;5.55;;;1.70;99.90;;;;;;7378292;19;20018;-61
2023/11/29 08:49:38;;;;;;;7.88;5.85;;;1.70;99.90;;;;;;7373378;19;20132;-60
2023/11/29 08:52:05;;;;;;;9.32;5.20;;;1.80;99.90;;;;;;7378455;19;20011;-61
2023/11/29 08:54:33;;;;;;;9.82;5.97;;;1.80;99.90;;;;;;7375941;19;20754;-61
2023/11/29 08:56:59;;;;;;;10.43;6.05;;;1.80;99.90;;;;;;7378543;19;20045;-62
2023/11/29 08:59:25;;;;;;;8.40;5.85;;;1.80;99.90;;;;;;7376918;19;20022;-61
2023/11/29 09:01:52;;;;;;;9.30;6.18;;;1.80;99.90;;;;;;7373818;19;20042;-61
2023/11/29 09:04:18;;;;;;;8.88;5.60;;;1.80;99.90;;;;;;7376318;19;20014;-62
2023/11/29 09:06:44;;;;;;;7.93;5.40;;;1.80;99.90;;;;;;7376582;19;20027;-61
2023/11/29 09:09:12;;;;;;;8.90;5.97;;;1.90;99.90;;;;;;7375274;19;20081;-61
2023/11/29 09:11:38;;;;;;;11.82;5.75;;;2.10;99.90;;;;;;7373570;19;20696;-61
2023/11/29 09:14:04;;;;;;;8.95;5.68;;;2.20;99.90;;;;;;7373215;19;20022;-61
2023/11/29 09:16:31;;;;;;;8.63;6.00;;;2.20;99.90;;;;;;7374247;19;20058;-62
2023/11/29 09:18:58;;;;;;;7.97;5.43;;;2.40;99.90;;;;;;7373557;19;20022;-60
2023/11/29 09:21:25;;;;;;;7.53;5.53;;;2.30;99.90;;;;;;7371429;19;20018;-61
2023/11/29 09:23:53;;;;;;;7.35;5.65;;;2.30;99.90;;;;;;7370380;19;20018;-62
2023/11/29 09:26:19;;;;;;;9.10;6.38;;;2.40;99.90;;;;;;7371574;19;20022;-61
2023/11/29 09:28:47;;;;;;;12.07;6.50;;;2.60;99.90;;;;;;7371223;19;20033;-61
2023/11/29 09:31:13;;;;;;;9.85;5.88;;;2.70;99.90;;;;;;7373526;19;20310;-62
2023/11/29 09:33:42;;;;;;;8.40;5.65;;;3.00;99.90;;;;;;7371086;19;20022;-61
2023/11/29 09:36:10;;;;;;;12.85;6.35;;;3.20;99.90;;;;;;7372866;19;20085;-62
2023/11/29 09:38:36;;;;;;;9.95;6.05;;;3.30;99.90;;;;;;7368409;19;20022;-62
2023/11/29 09:41:06;;;;;;;17.17;10.45;;;3.40;99.90;;;;;;7372134;19;20608;-61
2023/11/29 09:43:35;;;;;;;8.27;4.78;;;3.40;99.90;;;;;;7374235;19;20014;-62
2023/11/29 09:46:02;;;;;;;7.53;4.05;;;3.30;99.90;;;;;;7372608;19;20021;-60
2023/11/29 09:48:28;;;;;;;8.90;4.30;;;3.40;99.90;;;;;;7368896;19;20572;-62
2023/11/29 09:50:56;;;;;;;6.28;4.07;;;3.60;99.90;;;;;;7375913;19;20044;-61
2023/11/29 09:53:23;;;;;;;11.40;6.05;;;3.80;99.90;;;;;;7371096;19;20025;-62
2023/11/29 09:55:51;;;;;;;7.45;4.32;;;4.10;99.90;;;;;;7374923;19;20735;-62
2023/11/29 09:58:18;;;;;;;6.28;4.15;;;4.30;99.90;;;;;;7370263;19;20010;-63
2023/11/29 10:00:44;;;;;;;10.43;5.97;;;4.30;99.90;;;;;;7372808;19;20018;-62
2023/11/29 10:03:14;;;;;;;6.03;3.88;;;4.50;99.90;;;;;;7374273;19;20081;-62
2023/11/29 10:05:45;;;;;;;6.05;3.60;;;4.70;99.90;;;;;;7373445;19;20026;-62
2023/11/29 10:08:22;;;;;;;7.80;4.03;;;4.70;99.90;;;;;;7370931;19;20014;-62
2023/11/29 10:10:50;;;;;;;9.48;5.03;;;5.20;99.90;;;;;;7369291;19;20047;-62
2023/11/29 10:13:22;;;;;;;7.60;3.75;;;5.10;99.90;;;;;;7370286;19;20023;-61
2023/11/29 10:15:50;;;;;;;6.80;2.80;;;5.00;99.90;;;;;;7369098;19;20022;-61
2023/11/29 10:18:19;;;;;;;5.32;2.97;;;5.00;99.90;;;;;;7371595;19;20048;-60
2023/11/29 10:20:52;;;;;;;5.68;3.03;;;4.90;99.90;;;;;;7371841;19;20019;-60
2023/11/29 10:23:18;;;;;;;8.43;2.97;;;5.00;99.90;;;;;;7375165;19;20052;-60
2023/11/29 10:25:44;;;;;;;5.25;2.85;;;5.00;99.90;;;;;;7369518;19;20030;-62
2023/11/29 10:28:13;;;;;;;6.90;2.70;;;5.10;99.90;;;;;;7367604;19;20027;-62
2023/11/29 10:30:40;;;;;;;5.40;2.80;;;5.10;99.90;;;;;;7373276;19;20074;-59
2023/11/29 10:33:09;;;;;;;5.38;2.72;;;4.90;99.90;;;;;;7372516;19;20018;-61
2023/11/29 10:35:37;;;;;;;6.85;2.80;;;5.00;99.90;;;;;;7369481;19;20106;-60
2023/11/29 10:38:22;;;;;;;5.60;2.75;;;5.00;99.90;;;;;;7369297;19;20024;-60
2023/11/29 10:40:49;;;;;;;11.57;6.10;;;5.00;99.90;;;;;;7368148;19;20039;-62
2023/11/29 10:43:24;;;;;;;5.60;2.95;;;4.90;99.90;;;;;;7371010;19;20023;-62
2023/11/29 10:45:53;;;;;;;7.03;2.70;;;5.20;99.90;;;;;;7370781;19;20382;-62
2023/11/29 10:48:29;;;;;;;9.50;2.63;;;6.20;99.90;;;;;;7375551;19;20127;-62
2023/11/29 10:50:57;;;;;;;5.75;2.45;;;7.30;99.90;;;;;;7377954;19;20482;-62
2023/11/29 10:53:23;;;;;;;5.97;2.05;;;8.00;99.90;;;;;;7378278;19;20027;-62
2023/11/29 10:55:51;;;;;;;4.55;2.13;;;8.00;99.90;;;;;;7376028;19;20039;-62
2023/11/29 10:58:39;;;;;;;4.82;2.15;;;7.60;99.90;;;;;;7379431;19;20022;-62
2023/11/29 11:01:08;;;;;;;5.97;2.92;;;7.60;99.90;;;;;;7380328;19;20428;-62
2023/11/29 11:03:43;;;;;;;4.13;2.03;;;7.30;99.90;;;;;;7373708;19;20015;-62
2023/11/29 11:06:29;;;;;;;10.00;5.55;;;6.90;99.90;;;;;;7378871;19;20017;-62
2023/11/29 11:08:57;;;;;;;4.45;1.73;;;6.80;99.90;;;;;;7374595;19;20019;-62
2023/11/29 11:11:46;;;;;;;3.22;1.90;;;6.90;99.90;;;;;;7377139;19;20470;-63
2023/11/29 11:14:40;;;;;;;4.70;2.10;;;6.90;99.90;;;;;;7377655;19;20458;-62
2023/11/29 11:17:09;;;;;;;6.40;2.10;;;6.90;99.90;;;;;;7378087;19;20097;-61
2023/11/29 11:19:48;;;;;;;4.28;2.03;;;6.70;99.90;;;;;;7374329;19;20489;-61
2023/11/29 11:22:40;;;;;;;6.38;2.25;;;6.80;99.90;;;;;;7378992;19;20034;-62
2023/11/29 11:25:28;;;;;;;5.97;2.80;;;6.60;99.90;;;;;;7374620;19;20018;-62
2023/11/29 11:27:54;;;;;;;5.90;2.60;;;6.60;99.90;;;;;;7376366;19;20054;-62
2023/11/29 11:30:20;;;;;;;3.83;2.25;;;6.30;99.90;;;;;;7377578;19;20019;-61
2023/11/29 11:32:49;;;;;;;9.60;2.78;;;6.40;99.90;;;;;;7377183;19;20039;-61
2023/11/29 11:35:20;;;;;;;7.80;2.65;;;6.80;99.90;;;;;;7379764;19;20085;-62
2023/11/29 11:37:58;;;;;;;3.22;2.20;;;7.40;99.90;;;;;;7375539;19;20110;-62
2023/11/29 11:40:32;;;;;;;5.07;2.53;;;7.90;99.90;;;;;;7376890;19;20617;-62
2023/11/29 11:42:59;;;;;;;4.60;2.28;;;8.10;99.90;;;;;;7372581;19;20343;-60
2023/11/29 11:45:29;;;;;;;6.85;2.40;;;8.00;99.90;;;;;;7379649;19;20052;-60
2023/11/29 11:48:04;;;;;;;4.75;2.30;;;8.00;99.90;;;;;;7373372;19;20022;-60
2023/11/29 11:50:31;;;;;;;6.25;2.33;;;7.40;99.90;;;;;;7376860;19;20090;-61
2023/11/29 11:53:03;;;;;;;5.13;2.58;;;7.00;99.90;;;;;;7374104;19;20580;-62
2023/11/29 11:55:30;;;;;;;6.22;2.28;;;6.60;99.90;;;;;;7372324;19;20019;-61
2023/11/29 11:57:59;;;;;;;5.20;2.08;;;6.40;99.90;;;;;;7373874;19;20019;-61
2023/11/29 12:00:26;;;;;;;5.07;2.15;;;6.00;99.90;;;;;;7374355;19;20570;-61
2023/11/29 12:02:53;;;;;;;6.55;2.25;;;5.90;99.90;;;;;;7374646;19;20022;-59
2023/11/29 12:05:20;;;;;;;5.28;2.30;;;5.70;99.90;;;;;;7378177;19;20022;-60
2023/11/29 12:07:48;;;;;;;6.15;2.33;;;5.50;99.90;;;;;;7377935;19;20022;-61
2023/11/29 12:10:15;;;;;;;6.28;1.80;;;5.40;99.90;;;;;;7376635;19;20022;-59
2023/11/29 12:12:43;;;;;;;3.35;2.08;;;5.10;99.90;;;;;;7375287;19;20015;-61
2023/11/29 12:15:16;;;;;;;5.30;2.22;;;5.00;99.90;;;;;;7373809;19;20018;-60
2023/11/29 12:17:45;;;;;;;3.75;2.08;;;4.80;99.90;;;;;;7375889;19;20395;-62
2023/11/29 12:20:13;;;;;;;6.32;2.30;;;4.80;99.90;;;;;;7375012;19;20023;-62
2023/11/29 12:22:44;;;;;;;6.13;2.70;;;4.60;99.90;;;;;;7373905;19;20508;-61
2023/11/29 12:25:19;;;;;;;4.60;2.03;;;4.60;99.90;;;;;;7376299;19;20035;-62
2023/11/29 12:27:47;;;;;;;3.90;2.10;;;4.50;99.90;;;;;;7370308;19;20018;-62
2023/11/29 12:30:14;;;;;;;6.55;2.00;;;4.40;99.90;;;;;;7375969;19;20075;-59
2023/11/29 12:32:40;;;;;;;3.65;1.90;;;4.40;99.90;;;;;;7376027;19;20478;-60
2023/11/29 12:35:10;;;;;;;5.15;2.30;;;4.40;99.90;;;;;;7375330;19;20049;-61
2023/11/29 12:37:45;;;;;;;5.15;2.55;;;4.30;99.90;;;;;;7370514;19;20018;-60
2023/11/29 12:40:16;;;;;;;5.60;2.95;;;4.30;99.90;;;;;;7374508;19;20938;-59
2023/11/29 12:42:44;;;;;;;9.82;3.03;;;4.30;99.90;;;;;;7368900;19;20019;-60
2023/11/29 12:45:12;;;;;;;5.40;2.55;;;4.10;99.90;;;;;;7375881;19;20034;-61
2023/11/29 12:47:39;;;;;;;5.65;2.60;;;4.10;99.90;;;;;;7373761;19;20027;-62
2023/11/29 12:50:07;;;;;;;8.40;3.67;;;4.10;99.90;;;;;;7371873;19;20023;-62
2023/11/29 12:52:34;;;;;;;7.70;4.18;;;4.00;99.90;;;;;;7374263;19;20055;-62